Time;durP1;ratioP1;P1;durP2;ratioP2;P2;SDS_P1;SDS_P2;PMS_P1;PMS_P2;Temp;Humidity;BMP_temperature;BMP_pressure;BME280_temperature;BME280_humidity;BME280_pressure;Samples;Min_cycle;Max_cycle;Signal;HPM_P1;HPM_P2
2022/11/12 00:00:45;;;;;;;61.25;33.75;;;;;;;7.53;83.43;102407.36;1761829;78;21011;-85
2022/11/12 00:03:31;;;;;;;57.95;34.33;;;;;;;7.52;83.60;102401.74;1761703;80;20889;-88
2022/11/12 00:06:15;;;;;;;53.52;33.73;;;;;;;7.54;83.66;102405.64;1761604;81;20943;-88
2022/11/12 00:09:01;;;;;;;54.63;32.17;;;;;;;7.54;83.76;102403.88;1761579;78;20904;-86
2022/11/12 00:11:45;;;;;;;;;;;;;;;7.54;83.82;102405.19;1764381;78;21156;-86
2022/11/12 00:14:30;;;;;;;47.23;28.00;;;;;;;7.58;83.87;102406.86;1761551;78;20092;-87
2022/11/12 00:17:15;;;;;;;;;;;;;;;7.59;83.91;102411.17;1763936;81;20949;-86
2022/11/12 00:20:00;;;;;;;47.58;28.52;;;;;;;7.62;84.01;102411.10;1761102;81;20195;-87
2022/11/12 00:22:45;;;;;;;50.80;31.90;;;;;;;7.64;84.11;102415.00;1761716;79;20873;-85
2022/11/12 00:25:31;;;;;;;50.58;29.98;;;;;;;7.66;84.15;102412.77;1761799;80;21249;-87
2022/11/12 00:28:16;;;;;;;;;;;;;;;7.69;84.15;102410.55;1761965;80;21018;-87
2022/11/12 00:31:08;;;;;;;61.40;31.73;;;;;;;7.72;84.14;102414.88;1759090;80;20112;-88
2022/11/12 00:33:53;;;;;;;54.10;30.00;;;;;;;7.74;84.13;102412.64;1758452;80;20995;-88
2022/11/12 00:36:39;;;;;;;55.63;31.20;;;;;;;7.77;84.10;102407.80;1758401;80;20983;-88
2022/11/12 00:39:26;;;;;;;52.75;31.75;;;;;;;7.78;84.06;102403.86;1758550;80;21636;-88
2022/11/12 00:42:11;;;;;;;59.23;31.40;;;;;;;7.81;84.04;102409.02;1758490;81;21026;-87
2022/11/12 00:44:56;;;;;;;57.60;30.32;;;;;;;7.82;83.98;102406.80;1758337;81;20852;-87
2022/11/12 00:47:41;;;;;;;58.10;31.42;;;;;;;7.84;83.93;102401.11;1758487;80;20936;-87
2022/11/12 00:50:26;;;;;;;52.45;31.45;;;;;;;7.85;83.90;102404.61;1758336;80;20975;-87
2022/11/12 00:53:10;;;;;;;57.15;32.20;;;;;;;7.86;83.91;102400.63;1758856;81;21162;-89
2022/11/12 00:56:02;;;;;;;50.98;31.95;;;;;;;7.87;83.85;102397.14;1758505;81;21480;-86
2022/11/12 00:58:47;;;;;;;51.88;29.77;;;;;;;7.88;83.84;102394.94;1758789;81;20904;-87
2022/11/12 01:01:33;;;;;;;58.00;32.17;;;;;;;7.89;83.83;102387.53;1758615;80;20900;-86
2022/11/12 01:04:18;;;;;;;54.20;30.85;;;;;;;7.88;83.84;102385.80;1758371;81;20937;-86
2022/11/12 01:07:03;;;;;;;64.00;33.10;;;;;;;7.87;83.87;102385.39;1758197;80;21156;-87
2022/11/12 01:09:50;;;;;;;62.45;34.67;;;;;;;7.87;83.93;102380.62;1758196;81;21493;-87
2022/11/12 01:12:35;;;;;;;61.10;32.00;;;;;;;7.87;84.02;102378.01;1758547;81;21506;-87
2022/11/12 01:15:22;;;;;;;64.92;33.30;;;;;;;7.86;84.09;102379.73;1758236;81;20932;-87
2022/11/12 01:18:08;;;;;;;65.62;33.67;;;;;;;7.87;84.17;102385.39;1758213;81;20947;-88
2022/11/12 01:20:54;;;;;;;;;;;;;;;7.86;84.23;102382.34;1760927;80;21442;-87
2022/11/12 01:23:41;;;;;;;64.12;31.52;;;;;;;7.87;84.33;102372.78;1758106;81;20393;-87
2022/11/12 01:26:27;;;;;;;65.65;33.73;;;;;;;7.85;84.41;102366.28;1758045;81;21003;-88
2022/11/12 01:29:12;;;;;;;77.08;36.53;;;;;;;7.85;84.48;102366.73;1758252;81;20936;-87
2022/11/12 01:31:57;;;;;;;;;;;;;;;7.85;84.58;102354.52;1746251;81;21590;-88
2022/11/12 01:34:42;;;;;;;69.20;33.92;;;;;;;7.85;84.69;102370.65;1758284;80;21167;-87
2022/11/12 01:37:27;;;;;;;61.88;33.45;;;;;;;7.82;84.82;102370.23;1758019;81;20931;-87
2022/11/12 01:40:13;;;;;;;61.50;34.25;;;;;;;7.83;84.99;102374.59;1758119;81;20881;-86
2022/11/12 01:42:58;;;;;;;61.98;33.05;;;;;;;7.83;85.09;102368.06;1758217;81;20967;-86
2022/11/12 01:45:45;;;;;;;59.70;32.40;;;;;;;7.84;85.23;102366.30;1757889;80;20919;-87
2022/11/12 01:48:36;;;;;;;63.45;32.28;;;;;;;7.84;85.28;102364.99;1758305;81;21219;-87
2022/11/12 01:51:22;;;;;;;65.15;30.72;;;;;;;7.83;85.36;102361.98;1754409;80;20909;-86
2022/11/12 01:54:09;;;;;;;54.63;29.02;;;;;;;7.82;85.41;102357.18;1744692;81;20908;-87
2022/11/12 01:56:54;;;;;;;54.83;29.05;;;;;;;7.80;85.47;102352.46;1735936;82;21390;-87
2022/11/12 01:59:43;;;;;;;57.65;29.40;;;;;;;7.80;85.59;102347.66;1744902;81;20948;-87
2022/11/12 02:02:27;;;;;;;57.30;29.80;;;;;;;7.79;85.66;102349.88;1744741;81;21263;-87
2022/11/12 02:05:12;;;;;;;55.05;28.05;;;;;;;7.79;85.77;102348.56;1745176;81;20920;-88
2022/11/12 02:07:58;;;;;;;54.58;28.15;;;;;;;7.79;85.88;102354.64;1736206;81;21540;-88
2022/11/12 02:10:43;;;;;;;53.68;27.95;;;;;;;7.81;85.90;102350.25;1744647;81;20952;-89
2022/11/12 02:16:40;;;;;;;49.40;27.30;;;;;;;7.81;85.98;102362.45;1745001;81;21153;-87
2022/11/12 02:19:25;;;;;;;46.58;27.60;;;;;;;7.80;86.06;102372.47;1744859;81;20948;-86
2022/11/12 02:22:10;;;;;;;53.85;29.70;;;;;;;7.82;86.18;102381.14;1745125;81;20955;-88
2022/11/12 02:24:55;;;;;;;54.67;29.65;;;;;;;7.81;86.26;102384.20;1744970;80;20853;-85
2022/11/12 02:27:43;;;;;;;50.67;27.00;;;;;;;7.81;86.27;102385.51;1744882;81;20916;-87
2022/11/12 02:30:39;;;;;;;48.50;28.05;;;;;;;7.80;86.39;102385.11;1744814;80;21158;-88
2022/11/12 02:33:24;;;;;;;;;;;;;;;7.81;86.44;102388.12;1747319;81;20915;-88
2022/11/12 02:36:09;;;;;;;46.33;26.70;;;;;;;7.79;86.44;102381.21;1744954;81;20085;-87
2022/11/12 02:38:54;;;;;;;;;;;;;;;7.76;86.54;102389.09;1747268;81;20885;-87
2022/11/12 02:41:40;;;;;;;50.98;26.77;;;;;;;7.73;86.70;102397.84;1744585;81;20073;-86
2022/11/12 02:44:25;;;;;;;55.25;28.52;;;;;;;7.71;86.86;102396.16;1744763;81;21170;-86
2022/11/12 02:47:10;;;;;;;50.75;28.98;;;;;;;7.72;87.00;102396.14;1744950;80;20988;-88
2022/11/12 02:49:55;;;;;;;51.20;26.45;;;;;;;7.73;86.98;102404.38;1744789;81;21374;-88
2022/11/12 02:52:40;;;;;;;51.88;26.35;;;;;;;7.74;87.01;102401.34;1744658;80;20933;-86
2022/11/12 02:55:25;;;;;;;;;;;;;;;7.76;87.06;102403.45;1747566;81;20925;-87
2022/11/12 02:58:10;;;;;;;49.23;25.60;;;;;;;7.77;87.11;102410.41;1745041;82;21171;-87
2022/11/12 03:00:55;;;;;;;50.35;25.92;;;;;;;7.78;87.11;102414.73;1746616;81;21046;-86
2022/11/12 03:03:41;;;;;;;47.35;26.52;;;;;;;7.80;87.08;102414.26;1747253;78;20904;-89
2022/11/12 03:06:26;;;;;;;49.93;26.97;;;;;;;7.81;87.05;102417.30;1747383;78;20934;-86
2022/11/12 03:09:12;;;;;;;49.30;24.45;;;;;;;7.82;87.04;102417.25;1747175;78;20967;-88
2022/11/12 03:11:57;;;;;;;49.95;26.65;;;;;;;7.82;87.01;102414.64;1747341;78;21228;-87
2022/11/12 03:14:41;;;;;;;47.20;26.25;;;;;;;7.85;86.99;102422.89;1746719;79;20912;-88
2022/11/12 03:17:27;;;;;;;45.40;23.87;;;;;;;7.86;86.96;102419.37;1745994;81;20972;-86
2022/11/12 03:20:12;;;;;;;44.50;24.00;;;;;;;7.88;86.91;102413.67;1745105;81;20940;-86
2022/11/12 03:23:03;;;;;;;36.42;21.65;;;;;;;7.89;86.86;102421.48;1744976;82;20901;-88
2022/11/12 03:25:48;;;;;;;47.60;24.70;;;;;;;7.89;86.79;102411.46;1744776;81;21173;-87
2022/11/12 03:28:33;;;;;;;47.30;23.52;;;;;;;7.90;86.70;102405.36;1744990;81;20889;-87
2022/11/12 03:31:20;;;;;;;46.98;23.18;;;;;;;7.87;86.64;102396.30;1744755;81;20916;-88
2022/11/12 03:34:05;;;;;;;47.33;22.25;;;;;;;7.86;86.62;102411.08;1744928;80;20928;-87
2022/11/12 03:36:50;;;;;;;46.73;22.42;;;;;;;7.86;86.65;102416.30;1744941;81;20949;-88
2022/11/12 03:39:36;;;;;;;39.58;21.97;;;;;;;7.85;86.64;102415.91;1744811;81;21322;-87
2022/11/12 03:42:22;;;;;;;46.20;23.77;;;;;;;7.84;86.60;102414.17;1744805;81;20869;-86
2022/11/12 03:45:07;;;;;;;45.38;23.50;;;;;;;7.81;86.61;102411.62;1744856;81;21011;-87
2022/11/12 03:47:55;;;;;;;47.90;22.50;;;;;;;7.80;86.72;102419.48;1744988;81;21054;-87
2022/11/12 03:50:40;;;;;;;45.73;23.38;;;;;;;7.78;86.77;102413.42;1744661;81;20925;-88
2022/11/12 03:53:26;;;;;;;42.78;23.35;;;;;;;7.76;86.83;102407.37;1756010;80;21223;-89
2022/11/12 03:56:11;;;;;;;46.88;23.25;;;;;;;7.74;86.96;102408.72;1757930;80;21393;-88
2022/11/12 03:58:56;;;;;;;41.68;22.37;;;;;;;7.75;87.04;102406.97;1757956;81;20853;-87
2022/11/12 04:01:42;;;;;;;45.23;23.20;;;;;;;7.74;87.04;102403.95;1758123;81;20860;-89
2022/11/12 04:08:34;;;;;;;42.35;23.75;;;;;;;7.72;87.18;102410.95;1758050;81;21417;-87
2022/11/12 04:10:20;;;;;;;40.08;20.97;;;;;;;7.70;87.35;102414.89;1758051;81;21474;-88
2022/11/12 04:22:20;;;;;;;42.05;24.40;;;;;;;7.67;87.86;102404.52;1757986;81;21868;-88
2022/11/12 04:28:10;;;;;;;42.90;25.57;;;;;;;7.66;87.95;102401.02;1757937;81;20097;-88
2022/11/12 04:30:54;;;;;;;;;;;;;;;7.65;88.03;102403.23;1760701;81;21426;-88
2022/11/12 04:33:39;;;;;;;33.88;22.00;;;;;;;7.66;88.18;102400.17;1758081;80;20112;-88
2022/11/12 04:36:26;;;;;;;36.38;21.45;;;;;;;7.69;88.24;102409.23;1758198;81;20911;-88
2022/11/12 04:39:11;;;;;;;31.33;20.57;;;;;;;7.72;88.20;102427.93;1758356;81;20951;-87
2022/11/12 04:45:06;;;;;;;37.67;21.25;;;;;;;7.70;88.10;102433.17;1758337;80;20939;-89
2022/11/12 04:47:51;;;;;;;32.13;19.75;;;;;;;7.70;88.10;102434.48;1758232;80;20932;-88
2022/11/12 04:50:37;;;;;;;38.92;22.35;;;;;;;7.70;88.11;102441.45;1758812;81;21108;-88
2022/11/12 04:53:22;;;;;;;39.40;21.10;;;;;;;7.71;88.29;102441.86;1758201;81;20876;-87
2022/11/12 04:56:08;;;;;;;37.55;21.80;;;;;;;7.75;88.43;102448.30;1758126;81;20924;-87
2022/11/12 04:58:52;;;;;;;;;;;;;;;7.77;88.39;102445.22;1760852;80;20936;-89
2022/11/12 05:01:37;;;;;;;37.17;21.37;;;;;;;7.81;88.43;102441.66;1758338;81;20464;-89
2022/11/12 05:04:26;;;;;;;38.17;21.73;;;;;;;7.85;88.40;102448.55;1758471;81;21158;-88
2022/11/12 05:07:12;;;;;;;37.50;21.42;;;;;;;7.89;88.34;102446.73;1758038;80;20944;-87
2022/11/12 05:09:59;;;;;;;39.15;22.25;;;;;;;7.91;88.24;102444.09;1758126;80;21487;-89
2022/11/12 05:12:45;;;;;;;39.50;23.27;;;;;;;7.93;88.14;102457.53;1757955;81;21394;-87
2022/11/12 05:15:31;;;;;;;45.52;25.32;;;;;;;7.96;88.09;102460.53;1758058;80;20963;-87
2022/11/12 05:18:15;;;;;;;;;;;;;;;7.99;88.09;102462.65;1760805;81;21157;-88
2022/11/12 05:22:04;;;;;;;46.50;26.33;;;;;;;8.01;88.06;102464.78;1758239;81;20085;-88
2022/11/12 05:23:49;;;;;;;44.80;26.10;;;;;;;8.04;88.06;102469.94;1758495;81;21014;-88
2022/11/12 05:26:34;;;;;;;49.18;28.25;;;;;;;8.08;88.10;102470.30;1758690;80;20948;-88
2022/11/12 05:29:21;;;;;;;52.27;29.98;;;;;;;8.10;87.94;102469.83;1758792;81;20995;-89
2022/11/12 05:32:11;;;;;;;46.42;27.62;;;;;;;8.13;88.03;102464.98;1758365;81;21265;-88
2022/11/12 05:34:57;;;;;;;51.33;26.77;;;;;;;8.16;87.95;102458.83;1758322;80;20975;-89
2022/11/12 05:37:43;;;;;;;48.10;26.25;;;;;;;8.17;87.95;102457.50;1758617;81;21473;-87
2022/11/12 05:40:28;;;;;;;51.85;28.27;;;;;;;8.20;87.84;102452.66;1758637;81;20987;-87
2022/11/12 05:43:13;;;;;;;;;;;;;;;8.22;87.72;102456.09;1761167;81;20935;-87
2022/11/12 05:45:58;;;;;;;72.45;35.68;;;;;;;8.22;87.62;102449.56;1758751;81;21162;-89
2022/11/12 05:48:43;;;;;;;73.40;37.70;;;;;;;8.23;87.63;102450.84;1758798;80;21358;-89
2022/11/12 05:51:29;;;;;;;62.83;32.78;;;;;;;8.25;87.68;102441.22;1758615;81;20956;-88
2022/11/12 05:54:24;;;;;;;61.98;30.32;;;;;;;8.28;87.65;102450.30;1758394;80;20880;-89
2022/11/12 05:57:23;;;;;;;56.53;27.62;;;;;;;8.33;87.66;102451.50;1756525;78;20955;-89
2022/11/12 06:00:10;;;;;;;65.52;26.55;;;;;;;8.38;87.65;102455.33;1750980;81;21172;-89
2022/11/12 06:03:00;;;;;;;59.90;26.95;;;;;;;8.44;87.53;102461.31;1758319;81;21354;-88
2022/11/12 06:05:45;;;;;;;52.27;24.70;;;;;;;8.49;87.49;102467.75;1758889;81;20877;-88
2022/11/12 06:08:31;;;;;;;42.35;25.32;;;;;;;8.56;87.36;102454.09;1760648;78;20952;-88
2022/11/12 06:11:16;;;;;;;45.03;25.85;;;;;;;8.62;87.19;102452.20;1729258;78;20932;-88
2022/11/12 06:14:03;;;;;;;51.58;27.82;;;;;;;8.65;86.98;102460.46;1662738;82;21011;-88
2022/11/12 06:16:48;;;;;;;58.68;29.12;;;;;;;8.68;86.86;102457.31;1708280;78;21146;-89
2022/11/12 06:19:33;;;;;;;73.30;38.75;;;;;;;8.71;86.74;102457.26;1736509;82;21008;-88
2022/11/12 06:22:18;;;;;;;82.25;40.85;;;;;;;8.75;86.67;102459.34;1737647;82;20978;-86
2022/11/12 06:25:05;;;;;;;82.85;43.05;;;;;;;8.78;86.51;102454.48;1736278;82;20948;-90
2022/11/12 06:27:50;;;;;;;79.15;38.95;;;;;;;8.83;86.38;102454.80;1735840;82;21248;-87
2022/11/12 06:30:35;;;;;;;71.05;35.03;;;;;;;8.88;86.33;102456.85;1736239;82;20946;-88
2022/11/12 06:33:26;;;;;;;62.93;30.37;;;;;;;8.95;86.24;102460.64;1736671;82;20867;-90
2022/11/12 06:36:13;;;;;;;62.25;31.10;;;;;;;9.01;86.18;102452.20;1717342;82;20906;-89
2022/11/12 06:39:00;;;;;;;62.58;34.30;;;;;;;9.09;86.02;102454.19;1736221;80;21024;-88
2022/11/12 06:41:45;;;;;;;46.45;26.50;;;;;;;9.17;85.78;102441.36;1736286;82;21255;-90
2022/11/12 06:44:36;;;;;;;47.78;26.85;;;;;;;9.26;85.55;102435.89;1716136;82;20942;-89
2022/11/12 06:47:24;;;;;;;44.98;28.10;;;;;;;9.34;85.29;102436.56;1736193;82;20942;-87
2022/11/12 06:50:11;;;;;;;44.70;25.27;;;;;;;9.43;85.06;102434.16;1735671;82;20867;-91
2022/11/12 06:53:00;;;;;;;38.80;24.37;;;;;;;9.50;84.73;102430.02;1735834;82;20980;-89
2022/11/12 06:55:48;;;;;;;44.77;29.45;;;;;;;9.58;84.43;102425.02;1738187;80;20863;-90
2022/11/12 06:58:34;;;;;;;41.50;25.37;;;;;;;9.68;84.29;102422.58;1737874;80;20972;-89
2022/11/12 07:01:19;;;;;;;35.23;22.15;;;;;;;9.77;83.77;102423.63;1737851;81;20808;-89
2022/11/12 07:04:06;;;;;;;32.17;21.07;;;;;;;9.82;83.34;102417.80;1737701;80;20993;-87
2022/11/12 07:06:52;;;;;;;37.03;22.60;;;;;;;9.88;82.98;102418.95;1737021;82;20894;-89
2022/11/12 07:09:37;;;;;;;33.08;21.45;;;;;;;9.98;82.74;102426.54;1735622;82;21804;-89
2022/11/12 07:12:22;;;;;;;29.20;18.32;;;;;;;10.05;82.30;102422.41;1735887;82;20938;-90
2022/11/12 07:15:17;;;;;;;;;;;;;;;10.16;82.04;102421.64;1763457;81;20900;-89
2022/11/12 07:18:05;;;;;;;28.20;17.00;;;;;;;10.26;81.44;102413.04;1760434;81;20400;-89
2022/11/12 07:21:03;;;;;;;26.25;16.48;;;;;;;10.31;81.17;102416.87;1760420;81;21516;-89
2022/11/12 07:23:49;;;;;;;18.62;13.93;;;;;;;10.36;80.74;102414.53;1760022;81;21988;-89
2022/11/12 07:26:34;;;;;;;;;;;;;;;10.39;80.29;102419.27;1762470;81;20935;-89
2022/11/12 07:29:20;;;;;;;19.62;12.75;;;;;;;10.43;80.10;102416.97;1759956;81;20106;-90
2022/11/12 07:32:06;;;;;;;16.50;11.73;;;;;;;10.46;79.87;102424.27;1736284;81;20947;-90
2022/11/12 07:34:51;;;;;;;16.70;12.20;;;;;;;10.53;79.60;102428.88;1760895;81;20868;-88
2022/11/12 07:37:37;;;;;;;20.23;15.95;;;;;;;10.61;79.34;102429.52;1760774;81;20892;-89
2022/11/12 07:40:27;;;;;;;19.57;15.20;;;;;;;10.67;79.10;102427.13;1759607;81;20864;-90
2022/11/12 07:43:12;;;;;;;16.85;12.60;;;;;;;10.74;78.72;102432.62;1759599;81;20939;-91
2022/11/12 07:45:59;;;;;;;14.93;10.45;;;;;;;10.75;78.49;102435.17;1761101;81;20919;-89
2022/11/12 07:48:45;;;;;;;16.50;11.65;;;;;;;10.76;78.30;102434.28;1760988;81;20974;-90
2022/11/12 07:51:34;;;;;;;21.27;12.43;;;;;;;10.76;78.18;102440.84;1716925;81;21291;-91
2022/11/12 07:54:19;;;;;;;15.53;11.18;;;;;;;10.77;78.18;102443.86;1760692;81;20936;-89
2022/11/12 07:57:05;;;;;;;13.65;10.08;;;;;;;10.84;78.03;102436.65;1760776;81;20955;-89
2022/11/12 07:59:49;;;;;;;;;;;;;;;10.94;77.88;102429.36;1762582;81;20951;-88
2022/11/12 08:02:34;;;;;;;12.88;8.98;;;;;;;11.00;77.44;102434.38;1760024;81;20118;-87
2022/11/12 08:05:19;;;;;;;;;;;;;;;11.00;76.95;102439.63;1762472;81;21638;-90
2022/11/12 08:08:04;;;;;;;13.83;8.88;;;;;;;10.98;76.89;102440.14;1760144;81;20094;-90
2022/11/12 08:10:57;;;;;;;13.88;10.85;;;;;;;11.01;77.06;102444.00;1760015;81;20935;-90
2022/11/12 08:13:43;;;;;;;14.35;9.33;;;;;;;11.10;76.87;102452.03;1756819;81;20984;-87
2022/11/12 08:16:27;;;;;;;16.65;11.40;;;;;;;11.10;76.35;102454.19;1746777;82;20940;-88
2022/11/12 08:19:12;;;;;;;15.10;11.20;;;;;;;11.06;76.23;102449.95;1747535;79;21113;-88
2022/11/12 08:22:04;;;;;;;17.02;10.70;;;;;;;11.04;76.32;102450.45;1747830;78;20924;-90
2022/11/12 08:24:55;;;;;;;15.38;10.23;;;;;;;11.03;76.42;102451.38;1734105;79;20857;-92
2022/11/12 08:27:43;;;;;;;12.03;9.38;;;;;;;11.02;76.42;102450.95;1779735;80;20966;-89
2022/11/12 08:30:28;;;;;;;11.08;9.05;;;;;;;11.03;76.58;102453.99;1780011;80;21406;-89
2022/11/12 08:33:13;;;;;;;12.90;9.53;;;;;;;11.09;76.35;102452.45;1779537;80;21188;-91
2022/11/12 08:36:08;;;;;;;16.07;11.10;;;;;;;11.15;76.44;102456.20;1779430;80;20982;-89
2022/11/12 08:38:59;;;;;;;14.75;10.40;;;;;;;11.23;76.19;102446.78;1757565;80;20872;-90
2022/11/12 08:41:51;;;;;;;11.28;8.95;;;;;;;11.30;76.01;102452.22;1732245;79;20988;-90
2022/11/12 08:44:36;;;;;;;14.73;9.65;;;;;;;11.38;75.67;102448.01;1647398;85;20948;-90
2022/11/12 08:47:23;;;;;;;14.03;10.48;;;;;;;11.45;75.33;102444.72;1684148;85;21239;-90
2022/11/12 08:50:10;;;;;;;13.15;10.00;;;;;;;11.54;74.98;102443.96;1688097;81;20993;-89
2022/11/12 08:53:07;;;;;;;13.80;10.32;;;;;;;11.66;74.43;102436.09;1697517;84;20862;-89
2022/11/12 08:55:57;;;;;;;14.53;11.63;;;;;;;11.78;74.09;102435.67;1697352;83;20981;-91
2022/11/12 08:58:44;;;;;;;14.75;11.38;;;;;;;11.87;73.66;102439.71;1697717;83;21016;-91
2022/11/12 09:01:30;;;;;;;16.97;11.50;;;;;;;11.93;73.49;102432.95;1697119;83;21980;-90
2022/11/12 09:04:17;;;;;;;16.70;12.28;;;;;;;12.00;73.16;102439.70;1716407;79;20940;-91
2022/11/12 09:07:03;;;;;;;18.35;13.98;;;;;;;12.02;72.46;102435.70;1716506;83;20987;-91
2022/11/12 09:09:48;;;;;;;15.08;13.08;;;;;;;11.98;72.09;102436.30;1716311;83;21436;-89
2022/11/12 09:12:33;;;;;;;15.13;12.63;;;;;;;11.94;72.20;102430.75;1717416;83;20947;-91
2022/11/12 09:15:21;;;;;;;12.95;11.00;;;;;;;12.02;72.41;102419.94;1718838;82;21234;-89
2022/11/12 09:18:09;;;;;;;16.10;13.25;;;;;;;12.10;72.26;102408.68;1718951;82;21059;-90
2022/11/12 09:21:07;;;;;;;22.45;17.27;;;;;;;12.14;71.96;102406.77;1719138;82;20849;-90
2022/11/12 09:23:54;;;;;;;20.17;14.93;;;;;;;12.20;71.75;102392.93;1692494;83;20939;-90
2022/11/12 09:26:41;;;;;;;26.82;21.17;;;;;;;12.29;71.52;102386.45;1718120;83;21021;-86
2022/11/12 09:29:26;;;;;;;30.95;21.75;;;;;;;12.36;70.73;102386.64;1717483;83;21252;-89
2022/11/12 09:32:11;;;;;;;23.30;17.45;;;;;;;12.34;70.57;102383.22;1717926;82;21047;-91
2022/11/12 09:34:57;;;;;;;26.75;19.00;;;;;;;12.37;70.29;102387.49;1716488;83;20896;-89
2022/11/12 09:37:45;;;;;;;20.25;16.67;;;;;;;12.33;69.80;102384.58;1716584;83;20861;-89
2022/11/12 09:40:53;;;;;;;18.77;15.55;;;;;;;12.24;69.64;102380.06;1716813;83;21099;-91
2022/11/12 09:43:50;;;;;;;18.10;14.70;;;;;;;12.24;70.18;102372.64;1716844;83;21272;-90
2022/11/12 09:47:00;;;;;;;15.55;13.62;;;;;;;12.44;70.27;102366.13;1717550;83;20868;-91
2022/11/12 09:50:07;;;;;;;17.57;12.60;;;;;;;12.79;69.43;102367.80;1717176;83;20904;-88
2022/11/12 09:52:58;;;;;;;17.85;13.48;;;;;;;13.15;68.38;102379.02;1716178;83;21445;-89
2022/11/12 09:55:47;;;;;;;16.82;13.03;;;;;;;13.35;67.13;102375.56;1716186;83;20944;-90
2022/11/12 09:58:34;;;;;;;12.10;10.60;;;;;;;13.39;66.51;102369.24;1716005;83;20939;-90
2022/11/12 10:01:55;;;;;;;13.08;11.00;;;;;;;13.43;66.07;102369.98;1716300;83;21492;-91
2022/11/12 10:05:18;;;;;;;14.43;11.10;;;;;;;13.56;65.78;102378.17;1712115;83;20962;-91
2022/11/12 10:08:28;;;;;;;15.80;12.15;;;;;;;13.84;65.25;102376.02;1711036;83;20924;-92
2022/11/12 10:19:08;;;;;;;10.68;8.90;;;;;;;15.09;61.67;102365.61;1612627;87;21006;-90
2022/11/12 10:22:51;;;;;;;14.53;11.83;;;;;;;15.63;60.65;102381.35;1612975;87;20955;-88
2022/11/12 10:25:38;;;;;;;13.13;11.22;;;;;;;15.84;58.87;102372.75;1612920;88;21029;-93
2022/11/12 10:28:29;;;;;;;11.83;10.53;;;;;;;15.69;57.89;102374.38;1612968;87;21536;-89
2022/11/12 10:31:17;;;;;;;11.95;10.30;;;;;;;15.54;58.23;102370.79;1595170;88;21486;-91
2022/11/12 10:34:22;;;;;;;13.03;11.55;;;;;;;15.39;58.16;102366.30;1613725;88;20963;-89
2022/11/12 10:37:26;;;;;;;15.35;12.10;;;;;;;15.18;58.47;102374.02;1613275;88;21041;-88
2022/11/12 10:40:34;;;;;;;17.90;13.55;;;;;;;14.96;58.79;102375.57;1596087;88;20926;-88
2022/11/12 10:43:21;;;;;;;17.17;13.50;;;;;;;14.67;59.24;102377.87;1613574;87;21100;-90
2022/11/12 10:46:23;;;;;;;17.15;13.83;;;;;;;14.43;60.08;102377.27;1614486;87;21306;-89
2022/11/12 10:49:19;;;;;;;16.65;14.23;;;;;;;14.31;60.69;102376.05;1680330;82;20995;-90
2022/11/12 10:52:07;;;;;;;17.73;14.18;;;;;;;14.21;61.07;102370.83;1713328;82;20936;-88
2022/11/12 10:55:03;;;;;;;17.98;14.35;;;;;;;14.19;61.20;102359.49;1696480;82;21083;-90
2022/11/12 10:58:10;;;;;;;19.67;15.32;;;;;;;14.09;61.41;102353.77;1713198;82;20892;-88
2022/11/12 11:01:01;;;;;;;19.40;14.80;;;;;;;13.98;61.79;102354.74;1742663;79;21216;-90
2022/11/12 11:03:51;;;;;;;18.90;14.30;;;;;;;13.96;62.18;102350.00;1758660;81;20976;-88
2022/11/12 11:06:36;;;;;;;23.12;18.37;;;;;;;13.96;62.26;102359.23;1758953;81;20929;-91
2022/11/12 11:09:23;;;;;;;24.50;19.45;;;;;;;13.87;62.20;102346.00;1742287;81;20937;-88
2022/11/12 11:12:25;;;;;;;19.15;16.12;;;;;;;13.77;62.53;102342.09;1758529;81;20988;-89
2022/11/12 11:15:20;;;;;;;24.60;19.42;;;;;;;13.64;63.08;102343.95;1758415;81;21167;-89
2022/11/12 11:18:14;;;;;;;23.40;17.80;;;;;;;13.52;63.61;102341.02;1758511;81;20984;-90
2022/11/12 11:21:20;;;;;;;29.48;22.82;;;;;;;13.45;64.03;102333.84;1758463;81;20952;-89
2022/11/12 11:24:27;;;;;;;22.40;16.25;;;;;;;13.35;64.38;102331.23;1758324;81;21462;-89
2022/11/12 11:27:50;;;;;;;17.20;14.30;;;;;;;13.21;64.78;102319.97;1758515;81;20861;-89
2022/11/12 11:30:48;;;;;;;22.27;15.30;;;;;;;13.13;65.09;102326.02;1758443;81;21288;-89
2022/11/12 11:33:57;;;;;;;25.32;19.62;;;;;;;13.04;65.35;102319.37;1758168;81;20893;-89
2022/11/12 11:36:57;;;;;;;23.42;19.92;;;;;;;12.99;65.46;102320.03;1758770;81;20912;-90
2022/11/12 11:40:02;;;;;;;26.35;20.12;;;;;;;12.86;65.82;102311.80;1758684;81;20936;-89
2022/11/12 11:42:57;;;;;;;;;;;;;;;12.76;66.17;102310.02;1740042;81;20926;-90
2022/11/12 11:46:23;;;;;;;18.77;13.70;;;;;;;12.73;66.57;102312.77;1759137;81;21164;-88
2022/11/12 11:49:48;;;;;;;20.80;14.00;;;;;;;12.66;66.72;102307.36;1758740;81;20854;-90
2022/11/12 11:53:00;;;;;;;20.17;12.35;;;;;;;12.63;67.23;102309.67;1758729;81;20949;-91
2022/11/12 11:55:58;;;;;;;19.90;13.28;;;;;;;12.72;66.98;102298.37;1758613;81;20842;-88
2022/11/12 11:58:52;;;;;;;12.88;10.93;;;;;;;12.91;67.05;102294.02;1758380;81;20857;-90
2022/11/12 12:02:04;;;;;;;13.43;10.23;;;;;;;13.14;66.29;102287.77;1758482;80;21874;-89
2022/11/12 12:05:01;;;;;;;12.43;9.60;;;;;;;13.38;65.21;102295.05;1758290;81;20910;-91
2022/11/12 12:09:33;;;;;;;16.30;12.65;;;;;;;13.67;64.15;102287.16;1854892;77;22575;-88
2022/11/12 12:12:57;;;;;;;13.78;11.30;;;;;;;13.64;63.77;102283.32;1822502;78;21324;-89
2022/11/12 12:16:20;;;;;;;14.93;9.95;;;;;;;13.62;63.59;102281.22;1823162;78;21776;-90
2022/11/12 12:19:38;;;;;;;11.00;9.03;;;;;;;13.48;63.52;102280.54;1825329;78;20919;-88
2022/11/12 12:22:43;;;;;;;11.73;9.05;;;;;;;13.27;63.60;102281.03;1825583;78;20844;-87
2022/11/12 12:25:37;;;;;;;14.20;9.35;;;;;;;13.03;64.19;102278.16;1824984;78;20895;-90
2022/11/12 12:28:38;;;;;;;14.30;10.63;;;;;;;12.92;64.64;102274.67;1823891;78;21032;-87
2022/11/12 12:31:30;;;;;;;16.32;12.03;;;;;;;12.86;65.25;102271.83;1823519;78;21315;-91
2022/11/12 12:34:34;;;;;;;16.42;11.43;;;;;;;12.76;65.79;102267.02;1822575;78;20891;-87
2022/11/12 12:37:39;;;;;;;15.75;11.25;;;;;;;12.61;66.11;102265.45;1822851;78;20990;-89
2022/11/12 12:41:00;;;;;;;27.07;20.05;;;;;;;12.40;66.53;102257.97;1823270;78;20848;-89
2022/11/12 12:44:05;;;;;;;22.02;12.93;;;;;;;12.26;67.21;102264.73;1824754;78;20876;-87
2022/11/12 12:46:59;;;;;;;22.02;13.53;;;;;;;12.17;67.69;102260.23;1824493;78;21200;-88
2022/11/12 12:49:47;;;;;;;20.55;15.18;;;;;;;12.10;67.75;102265.82;1806768;77;20990;-88
2022/11/12 12:53:09;;;;;;;19.55;12.03;;;;;;;11.98;67.83;102269.34;1782445;79;20837;-88
2022/11/12 12:56:05;;;;;;;20.88;13.48;;;;;;;11.84;67.95;102270.28;1780786;80;21334;-88
2022/11/12 12:59:07;;;;;;;18.85;13.30;;;;;;;11.66;68.45;102268.37;1782034;80;20963;-90
2022/11/12 13:01:58;;;;;;;20.55;14.60;;;;;;;11.56;68.87;102258.22;1781660;80;21212;-88
2022/11/12 13:04:58;;;;;;;17.10;11.85;;;;;;;11.46;69.40;102258.61;1781368;80;20904;-89
2022/11/12 13:07:48;;;;;;;17.95;13.62;;;;;;;11.26;69.86;102244.91;1781233;79;21084;-88
2022/11/12 13:10:47;;;;;;;28.47;15.90;;;;;;;11.10;70.47;102240.67;1780325;80;21259;-89
2022/11/12 13:13:38;;;;;;;26.25;17.17;;;;;;;11.00;70.92;102234.88;1780221;80;20955;-90
2022/11/12 13:16:52;;;;;;;26.85;19.95;;;;;;;10.87;71.28;102241.04;1757023;80;21101;-88
2022/11/12 13:20:01;;;;;;;25.40;14.63;;;;;;;10.76;71.65;102241.41;1781969;79;21042;-90
2022/11/12 13:22:49;;;;;;;17.17;13.85;;;;;;;10.67;71.94;102249.60;1781618;80;21086;-90
2022/11/12 13:25:34;;;;;;;26.07;19.45;;;;;;;10.58;72.16;102253.82;1781792;80;20940;-90
2022/11/12 13:28:19;;;;;;;22.87;15.00;;;;;;;10.50;72.33;102249.31;1781519;79;20963;-91
2022/11/12 13:31:24;;;;;;;30.88;19.67;;;;;;;10.42;72.57;102247.38;1781243;79;21803;-90
2022/11/12 13:34:22;;;;;;;29.50;17.25;;;;;;;10.34;72.85;102245.88;1781406;80;20928;-91
2022/11/12 13:37:13;;;;;;;38.02;21.45;;;;;;;10.23;73.25;102243.18;1781700;79;20880;-88